Belgica — ORGQ — position and weather

sailwx.info

Track history (hours):
 
Tides and Currents Weather Stations Pressure Air Temp Water Temp Dewpoint Dewpoint Depression Visibility Wind Speed Wind Dir Waves Ship Positions

Oceanographic research ship Belgica (Belgium)

Detailed information on ship capabilities available from University of Delaware's Ocean Information Center.

Last reported at 2018-Jun-21 02:25 UTC. Time now 2018-Jun-21 02:35 UTC.
Position N 52°30' E 003°44'.

Length 51 m; draft 4.7 m.

MMSI: 205218000.

Date/timePositionNaut miles runAvg speedWind from/ knotsBaromVisibWave heightAir tempDewpointWater temp
2018-Jun-21 02:25N 52°30' E 003°44'3 6.2
2018-Jun-21 01:59N 52°29' E 003°41'3 6.3
2018-Jun-21 01:30N 52°27' E 003°37'3 6.5
2018-Jun-21 01:00N 52°24' E 003°33'4 6.9
2018-Jun-21 00:21N 52°21' E 003°28'3 7.1
2018-Jun-20 23:54N 52°18' E 003°27'3 8.3
2018-Jun-20 23:30N 52°15' E 003°26'6 9.9
2018-Jun-20 22:55N 52°09' E 003°26'410.2
2018-Jun-20 22:30N 52°05' E 003°25'510.3
2018-Jun-20 21:58N 51°59' E 003°24'510.6
2018-Jun-20 21:30N 51°54' E 003°23'610.8
2018-Jun-20 20:57N 51°49' E 003°18'511.1
2018-Jun-20 20:29N 51°44' E 003°14'510.9
2018-Jun-20 20:00N 51°39' E 003°12'610.8
2018-Jun-20 19:29N 51°34' E 003°10'611.6
2018-Jun-20 18:59N 51°29' E 003°04'510.4
2018-Jun-20 18:30N 51°24' E 003°04'3 5.9
2018-Jun-20 17:57N 51°22' E 003°07'1 2.1
2018-Jun-20 17:30N 51°22' E 003°08'3 5.6
2018-Jun-20 17:00N 51°21' E 003°12'0 0.9
2018-Jun-20 16:30N 51°20' E 003°12'0 0.0
2018-Jun-20 15:51N 51°20' E 003°12'0 0.0
2018-Jun-20 15:30N 51°20' E 003°12'0 0.0
2018-Jun-20 14:54N 51°20' E 003°12'0 0.0
2018-Jun-20 14:27N 51°20' E 003°12'0 0.0
2018-Jun-20 14:00N 51°20' E 003°12'0 0.0
2018-Jun-20 13:15N 51°20' E 003°12'0 0.0
2018-Jun-20 12:57N 51°20' E 003°12'0 0.0
2018-Jun-20 12:30N 51°20' E 003°12'0 0.0
2018-Jun-20 11:09N 51°20' E 003°12'0 0.0
2018-Jun-20 11:00N 51°20' E 003°12'0 0.0
2018-Jun-20 10:24N 51°20' E 003°12'0 0.0
2018-Jun-20 10:00N 51°20' E 003°12'0 0.0
2018-Jun-20 09:24N 51°20' E 003°12'0 0.0
2018-Jun-20 08:54N 51°20' E 003°12'0 0.0
2018-Jun-20 07:51N 51°20' E 003°12'0 0.0
2018-Jun-20 07:30N 51°20' E 003°12'0 0.0
2018-Jun-20 06:57N 51°20' E 003°12'0 0.0
2018-Jun-20 06:27N 51°20' E 003°12'0 0.0
2018-Jun-20 05:48N 51°20' E 003°12'0 0.0
2018-Jun-20 05:21N 51°20' E 003°12'0 0.0
2018-Jun-20 04:54N 51°20' E 003°12'0 0.0
2018-Jun-20 04:30N 51°20' E 003°12'0 0.0
2018-Jun-20 03:54N 51°20' E 003°12'0 0.0
2018-Jun-20 03:30N 51°20' E 003°12'0 0.0
2018-Jun-20 02:54N 51°20' E 003°12'0 0.0
2018-Jun-20 02:30N 51°20' E 003°12'0 0.0
2018-Jun-20 02:00N 51°20' E 003°12'0 0.0
2018-Jun-20 01:21N 51°20' E 003°12'0 0.0
2018-Jun-20 01:00N 51°20' E 003°12'0 0.0
2018-Jun-20 00:30N 51°20' E 003°12'0 0.0
2018-Jun-19 23:15N 51°20' E 003°12'0 0.0
2018-Jun-19 23:00N 51°20' E 003°12'0 0.0
2018-Jun-19 22:30N 51°20' E 003°12'0 0.0
2018-Jun-19 22:00N 51°20' E 003°12'0 0.0
2018-Jun-19 20:57N 51°20' E 003°12'0 0.0
2018-Jun-19 20:27N 51°20' E 003°12'0 0.0
2018-Jun-19 19:54N 51°20' E 003°12'0 0.0
2018-Jun-19 19:30N 51°20' E 003°12'0 0.0
2018-Jun-19 19:00N 51°20' E 003°12'0 0.2
2018-Jun-19 18:30N 51°20' E 003°12'3 6.2
2018-Jun-19 18:00N 51°21' E 003°07'0 0.6
2018-Jun-19 17:30N 51°22' E 003°07'0 0.4
2018-Jun-19 17:00N 51°22' E 003°07'0 0.7
2018-Jun-19 16:30N 51°22' E 003°07'4 8.5
2018-Jun-19 16:00N 51°21' E 003°01'4 9.0
2018-Jun-19 15:30N 51°19' E 002°54'4 7.6
2018-Jun-19 15:00N 51°15' E 002°54'2 4.1
2018-Jun-19 14:30N 51°14' E 002°56'0 0.5
2018-Jun-19 14:00N 51°13' E 002°56'1 1.4
2018-Jun-19 13:30N 51°13' E 002°57'1 2.8
2018-Jun-19 13:00N 51°13' E 002°59'0 0.0
2018-Jun-19 12:30N 51°13' E 002°59'0 0.0
2018-Jun-19 11:57N 51°13' E 002°59'0 0.0
2018-Jun-19 11:30N 51°13' E 002°59'0 0.0
2018-Jun-19 11:00N 51°13' E 002°59'0 0.0
2018-Jun-19 10:30N 51°13' E 002°59'0 0.0
2018-Jun-19 10:00N 51°13' E 002°59'0 0.0
2018-Jun-19 09:30N 51°13' E 002°59'0 0.0
2018-Jun-19 09:00N 51°13' E 002°59'0 0.0
2018-Jun-19 08:30N 51°13' E 002°59'0 0.0
2018-Jun-19 07:56N 51°13' E 002°59'0 0.0
2018-Jun-19 07:29N 51°13' E 002°59'0 0.0
2018-Jun-19 06:59N 51°13' E 002°59'  
Track history (hours):
 
Tides and Currents Weather Stations Pressure Air Temp Water Temp Dewpoint Dewpoint Depression Visibility Wind Speed Wind Dir Waves Ship Positions

Oceanographic research ship Belgica (Belgium)

Detailed information on ship capabilities available from University of Delaware's Ocean Information Center.

Last reported at 2018-Jun-21 02:25 UTC. Time now 2018-Jun-21 02:35 UTC.
Position N 52°30' E 003°44'.

Length 51 m; draft 4.7 m.

MMSI: 205218000.

Date/timePositionNaut miles runAvg speedWind from/ knotsBaromVisibWave heightAir tempDewpointWater temp
2018-Jun-21 02:25N 52°30' E 003°44'3 6.2
2018-Jun-21 01:59N 52°29' E 003°41'3 6.3
2018-Jun-21 01:30N 52°27' E 003°37'3 6.5
2018-Jun-21 01:00N 52°24' E 003°33'4 6.9
2018-Jun-21 00:21N 52°21' E 003°28'3 7.1
2018-Jun-20 23:54N 52°18' E 003°27'3 8.3
2018-Jun-20 23:30N 52°15' E 003°26'6 9.9
2018-Jun-20 22:55N 52°09' E 003°26'410.2
2018-Jun-20 22:30N 52°05' E 003°25'510.3
2018-Jun-20 21:58N 51°59' E 003°24'510.6
2018-Jun-20 21:30N 51°54' E 003°23'610.8
2018-Jun-20 20:57N 51°49' E 003°18'511.1
2018-Jun-20 20:29N 51°44' E 003°14'510.9
2018-Jun-20 20:00N 51°39' E 003°12'610.8
2018-Jun-20 19:29N 51°34' E 003°10'611.6
2018-Jun-20 18:59N 51°29' E 003°04'510.4
2018-Jun-20 18:30N 51°24' E 003°04'3 5.9
2018-Jun-20 17:57N 51°22' E 003°07'1 2.1
2018-Jun-20 17:30N 51°22' E 003°08'3 5.6
2018-Jun-20 17:00N 51°21' E 003°12'0 0.9
2018-Jun-20 16:30N 51°20' E 003°12'0 0.0
2018-Jun-20 15:51N 51°20' E 003°12'0 0.0
2018-Jun-20 15:30N 51°20' E 003°12'0 0.0
2018-Jun-20 14:54N 51°20' E 003°12'0 0.0
2018-Jun-20 14:27N 51°20' E 003°12'0 0.0
2018-Jun-20 14:00N 51°20' E 003°12'0 0.0
2018-Jun-20 13:15N 51°20' E 003°12'0 0.0
2018-Jun-20 12:57N 51°20' E 003°12'0 0.0
2018-Jun-20 12:30N 51°20' E 003°12'0 0.0
2018-Jun-20 11:09N 51°20' E 003°12'0 0.0
2018-Jun-20 11:00N 51°20' E 003°12'0 0.0
2018-Jun-20 10:24N 51°20' E 003°12'0 0.0
2018-Jun-20 10:00N 51°20' E 003°12'0 0.0
2018-Jun-20 09:24N 51°20' E 003°12'0 0.0
2018-Jun-20 08:54N 51°20' E 003°12'0 0.0
2018-Jun-20 07:51N 51°20' E 003°12'0 0.0
2018-Jun-20 07:30N 51°20' E 003°12'0 0.0
2018-Jun-20 06:57N 51°20' E 003°12'0 0.0
2018-Jun-20 06:27N 51°20' E 003°12'0 0.0
2018-Jun-20 05:48N 51°20' E 003°12'0 0.0
2018-Jun-20 05:21N 51°20' E 003°12'0 0.0
2018-Jun-20 04:54N 51°20' E 003°12'0 0.0
2018-Jun-20 04:30N 51°20' E 003°12'0 0.0
2018-Jun-20 03:54N 51°20' E 003°12'0 0.0
2018-Jun-20 03:30N 51°20' E 003°12'0 0.0
2018-Jun-20 02:54N 51°20' E 003°12'0 0.0
2018-Jun-20 02:30N 51°20' E 003°12'0 0.0
2018-Jun-20 02:00N 51°20' E 003°12'0 0.0
2018-Jun-20 01:21N 51°20' E 003°12'0 0.0
2018-Jun-20 01:00N 51°20' E 003°12'0 0.0
2018-Jun-20 00:30N 51°20' E 003°12'0 0.0
2018-Jun-19 23:15N 51°20' E 003°12'0 0.0
2018-Jun-19 23:00N 51°20' E 003°12'0 0.0
2018-Jun-19 22:30N 51°20' E 003°12'0 0.0
2018-Jun-19 22:00N 51°20' E 003°12'0 0.0
2018-Jun-19 20:57N 51°20' E 003°12'0 0.0
2018-Jun-19 20:27N 51°20' E 003°12'0 0.0
2018-Jun-19 19:54N 51°20' E 003°12'0 0.0
2018-Jun-19 19:30N 51°20' E 003°12'0 0.0
2018-Jun-19 19:00N 51°20' E 003°12'0 0.2
2018-Jun-19 18:30N 51°20' E 003°12'3 6.2
2018-Jun-19 18:00N 51°21' E 003°07'0 0.6
2018-Jun-19 17:30N 51°22' E 003°07'0 0.4
2018-Jun-19 17:00N 51°22' E 003°07'0 0.7
2018-Jun-19 16:30N 51°22' E 003°07'4 8.5
2018-Jun-19 16:00N 51°21' E 003°01'4 9.0
2018-Jun-19 15:30N 51°19' E 002°54'4 7.6
2018-Jun-19 15:00N 51°15' E 002°54'2 4.1
2018-Jun-19 14:30N 51°14' E 002°56'0 0.5
2018-Jun-19 14:00N 51°13' E 002°56'1 1.4
2018-Jun-19 13:30N 51°13' E 002°57'1 2.8
2018-Jun-19 13:00N 51°13' E 002°59'0 0.0
2018-Jun-19 12:30N 51°13' E 002°59'0 0.0
2018-Jun-19 11:57N 51°13' E 002°59'0 0.0
2018-Jun-19 11:30N 51°13' E 002°59'0 0.0
2018-Jun-19 11:00N 51°13' E 002°59'0 0.0
2018-Jun-19 10:30N 51°13' E 002°59'0 0.0
2018-Jun-19 10:00N 51°13' E 002°59'0 0.0
2018-Jun-19 09:30N 51°13' E 002°59'0 0.0
2018-Jun-19 09:00N 51°13' E 002°59'0 0.0
2018-Jun-19 08:30N 51°13' E 002°59'0 0.0
2018-Jun-19 07:56N 51°13' E 002°59'0 0.0
2018-Jun-19 07:29N 51°13' E 002°59'0 0.0
2018-Jun-19 06:59N 51°13' E 002°59'  

Dump ship's entire track history